KSGT

Stuttgart Municipal Carl Humphrey Field Airport

Stuttgart, Arkansas, USA
METAR KSGT 190736Z AUTO 21004KT 8SM BKN021 08/07 A3003 RMK AO2 RAE06B22E32 P0000
Observed Flight Rules
Dec-19 @ 07:36 UTC (18 minutes ago) Marginal Visual Flight Rules
Wind Visibility Clouds
210° at 4 knots 8 miles
  • Broken at 2,100' AGL
Temperatures Readings Precipitation
Current 8°C / 46°F
Dewpoint 7°C / 45°F
Humidity 93%
Altimeter 30.03" Hg
Pressure 1017 hPa
Elevation 68
Current Rain 0.005
METAR KSGT 190736Z AUTO 21004KT 8SM BKN021 08/07 A3003 RMK AO2 RAE06B22E32 P0000
Observed Flight Rules
Dec-19 @ 07:36 UTC
(18 minutes ago)
MVFR
Wind Visibility
210° at 4 knots 8 miles
Clouds
  • Broken at 2,100' AGL
Temperature Dewpoint
8°C / 46°F 7°C / 45°F
Humidity Altimeter Pressure
93% 30.03" Hg 1017 hPa
Current Rain
0.005